Time;durP1;ratioP1;P1;durP2;ratioP2;P2;SDS_P1;SDS_P2;PMS_P1;PMS_P2;Temp;Humidity;BMP_temperature;BMP_pressure;BME280_temperature;BME280_humidity;BME280_pressure;Samples;Min_cycle;Max_cycle;Signal;HPM_P1;HPM_P2
2021/07/28 00:02:01;;;;;;;29.42;15.52;;;17.70;99.90;;;;;;5074204;28;20074;-81
2021/07/28 00:04:26;;;;;;;22.55;15.73;;;17.70;99.90;;;;;;5074306;28;20012;-82
2021/07/28 00:06:52;;;;;;;21.00;14.50;;;17.80;99.90;;;;;;5074105;28;20024;-81
2021/07/28 00:09:17;;;;;;;20.85;14.65;;;17.70;99.90;;;;;;5074306;28;20036;-82
2021/07/28 00:11:43;;;;;;;21.70;14.93;;;17.70;99.90;;;;;;5073967;28;20063;-82
2021/07/28 00:14:09;;;;;;;30.55;16.88;;;17.70;99.90;;;;;;5074150;28;20092;-81
2021/07/28 00:16:35;;;;;;;28.77;17.98;;;17.70;99.90;;;;;;5074028;28;20558;-82
2021/07/28 00:19:09;;;;;;;28.13;16.50;;;17.70;99.90;;;;;;5074084;28;20024;-82
2021/07/28 00:24:18;;;;;;;23.67;16.45;;;17.70;99.90;;;;;;5094409;28;20054;-82
2021/07/28 00:26:44;;;;;;;26.58;15.57;;;17.70;99.90;;;;;;5094098;28;20527;-82
2021/07/28 00:29:09;;;;;;;22.63;16.67;;;17.70;99.90;;;;;;5076016;28;20055;-82
2021/07/28 00:31:35;;;;;;;27.65;16.92;;;17.60;99.90;;;;;;5093839;28;20099;-82
2021/07/28 00:34:00;;;;;;;26.30;16.77;;;17.60;99.90;;;;;;5093999;28;20491;-82
2021/07/28 00:36:26;;;;;;;33.60;19.13;;;17.60;99.90;;;;;;5093767;28;20157;-82
2021/07/28 00:38:52;;;;;;;24.05;17.27;;;17.60;99.90;;;;;;5093920;28;20024;-83
2021/07/28 00:41:17;;;;;;;26.83;18.15;;;17.60;99.90;;;;;;5093695;28;20032;-82
2021/07/28 00:43:43;;;;;;;29.27;19.65;;;17.60;99.90;;;;;;5093807;28;20031;-82
2021/07/28 00:46:08;;;;;;;24.63;17.25;;;17.60;99.90;;;;;;5093661;28;20024;-82
2021/07/28 00:48:35;;;;;;;31.73;18.52;;;17.60;99.90;;;;;;5093731;28;20395;-82
2021/07/28 00:51:01;;;;;;;27.85;17.23;;;17.70;99.90;;;;;;5093567;28;20552;-81
2021/07/28 00:53:26;;;;;;;26.55;18.00;;;17.70;99.90;;;;;;5083973;28;20063;-82
2021/07/28 00:55:53;;;;;;;26.90;18.33;;;17.70;99.90;;;;;;5089916;28;20027;-81
2021/07/28 00:58:20;;;;;;;32.70;19.98;;;17.70;99.90;;;;;;5093511;28;20610;-81
2021/07/28 01:00:46;;;;;;;27.77;17.65;;;17.70;99.90;;;;;;5093409;28;20024;-82
2021/07/28 01:03:13;;;;;;;29.15;18.60;;;17.70;99.90;;;;;;5093219;28;20039;-82
2021/07/28 01:05:39;;;;;;;26.45;17.13;;;17.70;99.90;;;;;;5093132;28;20097;-82
2021/07/28 01:08:05;;;;;;;30.35;18.73;;;17.70;99.90;;;;;;5075157;28;20469;-82
2021/07/28 01:10:32;;;;;;;36.33;18.73;;;17.60;99.90;;;;;;5093304;28;20032;-82
2021/07/28 01:12:57;;;;;;;28.73;18.38;;;17.60;99.90;;;;;;5074857;28;20485;-82
2021/07/28 01:18:04;;;;;;;28.15;19.88;;;17.60;99.90;;;;;;5093182;28;20118;-82
2021/07/28 01:20:36;;;;;;;31.30;19.60;;;17.60;99.90;;;;;;5090868;28;20048;-82
2021/07/28 01:23:09;;;;;;;28.08;18.15;;;17.60;99.90;;;;;;5072603;28;20024;-82
2021/07/28 01:25:37;;;;;;;38.78;22.10;;;17.50;99.90;;;;;;5074924;28;20105;-82
2021/07/28 01:28:03;;;;;;;30.60;19.60;;;17.50;99.90;;;;;;5075926;28;20158;-82
2021/07/28 01:30:30;;;;;;;33.15;20.17;;;17.50;99.90;;;;;;5072572;28;20499;-82
2021/07/28 01:32:56;;;;;;;31.85;19.77;;;17.50;99.90;;;;;;5072215;28;20024;-82
2021/07/28 01:35:24;;;;;;;38.65;22.45;;;17.50;99.90;;;;;;5072574;28;20020;-82
2021/07/28 01:37:49;;;;;;;39.08;21.92;;;17.60;99.90;;;;;;5054607;28;20025;-82
2021/07/28 01:40:15;;;;;;;38.30;22.27;;;17.60;99.90;;;;;;5072496;28;20028;-81
2021/07/28 01:42:45;;;;;;;35.65;20.48;;;17.70;99.90;;;;;;5054250;28;20029;-82
2021/07/28 01:45:12;;;;;;;34.38;19.63;;;17.70;99.90;;;;;;5072239;28;20032;-82
2021/07/28 01:47:38;;;;;;;36.38;19.33;;;17.70;99.90;;;;;;5072084;28;20025;-80
2021/07/28 01:50:07;;;;;;;48.35;21.50;;;17.70;99.90;;;;;;5072312;28;20532;-81
2021/07/28 01:52:34;;;;;;;45.30;22.08;;;17.70;99.90;;;;;;5072011;28;20023;-81
2021/07/28 01:54:59;;;;;;;35.58;22.30;;;17.70;99.90;;;;;;5072223;28;20044;-81
2021/07/28 01:57:25;;;;;;;31.80;21.95;;;17.70;99.90;;;;;;5072241;28;20055;-81
2021/07/28 01:59:51;;;;;;;34.60;22.27;;;17.70;99.90;;;;;;5054135;28;20074;-80
2021/07/28 02:02:17;;;;;;;41.63;23.17;;;17.60;99.90;;;;;;5071847;28;20016;-80
2021/07/28 02:04:42;;;;;;;38.55;25.27;;;17.60;99.90;;;;;;5072025;28;20027;-80
2021/07/28 02:07:08;;;;;;;50.13;26.50;;;17.60;99.90;;;;;;5072028;28;20046;-81
2021/07/28 02:09:34;;;;;;;38.55;25.35;;;17.60;99.90;;;;;;5054008;28;20074;-80
2021/07/28 02:11:59;;;;;;;44.42;25.90;;;17.50;99.90;;;;;;5071293;28;20027;-81
2021/07/28 02:14:25;;;;;;;46.15;24.70;;;17.50;99.90;;;;;;5071904;28;20504;-81
2021/07/28 02:16:51;;;;;;;33.30;22.10;;;17.40;99.90;;;;;;5071826;28;20376;-80
2021/07/28 02:19:16;;;;;;;39.28;24.50;;;17.40;99.90;;;;;;5071928;28;20373;-80
2021/07/28 02:21:42;;;;;;;40.58;25.30;;;17.30;99.90;;;;;;5071531;28;20025;-80
2021/07/28 02:24:07;;;;;;;43.75;24.60;;;17.30;99.90;;;;;;5071739;28;20044;-82
2021/07/28 02:26:33;;;;;;;45.60;23.15;;;17.30;99.90;;;;;;5053797;28;20021;-80
2021/07/28 02:28:58;;;;;;;38.80;23.27;;;17.30;99.90;;;;;;5071671;28;20017;-80
2021/07/28 02:31:24;;;;;;;41.75;23.48;;;17.20;99.90;;;;;;5053561;28;20107;-80
2021/07/28 02:33:49;;;;;;;50.13;25.77;;;17.20;99.90;;;;;;5071754;28;20469;-80
2021/07/28 02:36:15;;;;;;;49.78;23.73;;;17.20;99.90;;;;;;5071702;28;20443;-80
2021/07/28 02:38:40;;;;;;;39.40;24.30;;;17.20;99.90;;;;;;5071698;28;20447;-81
2021/07/28 02:41:06;;;;;;;47.47;24.65;;;17.20;99.90;;;;;;5071628;28;20465;-81
2021/07/28 02:43:31;;;;;;;44.38;22.85;;;17.10;99.90;;;;;;5053455;28;20028;-80
2021/07/28 02:45:57;;;;;;;42.08;25.15;;;17.00;99.90;;;;;;5071421;28;20028;-80
2021/07/28 02:48:22;;;;;;;43.53;25.05;;;17.00;99.90;;;;;;5071538;28;20082;-80
2021/07/28 02:50:48;;;;;;;35.28;23.42;;;17.00;99.90;;;;;;5071564;28;20027;-81
2021/07/28 02:53:14;;;;;;;49.75;21.20;;;16.90;99.90;;;;;;5071327;28;20032;-80
2021/07/28 02:55:39;;;;;;;41.22;26.08;;;16.90;99.90;;;;;;5053462;28;20060;-80
2021/07/28 02:58:05;;;;;;;36.63;22.70;;;16.90;99.90;;;;;;5071558;28;20028;-81
2021/07/28 03:00:30;;;;;;;43.28;25.35;;;16.80;99.90;;;;;;5071437;28;20024;-80
2021/07/28 03:02:56;;;;;;;43.60;24.17;;;16.80;99.90;;;;;;5071225;28;20157;-80
2021/07/28 03:05:21;;;;;;;45.63;25.40;;;16.60;99.90;;;;;;5071387;28;20531;-80
2021/07/28 03:07:47;;;;;;;45.33;24.35;;;16.70;99.90;;;;;;5053369;28;20500;-81
2021/07/28 03:10:12;;;;;;;41.03;25.13;;;16.60;99.90;;;;;;5071406;28;20032;-80
2021/07/28 03:12:38;;;;;;;42.08;24.13;;;16.60;99.90;;;;;;5071120;28;20079;-80
2021/07/28 03:15:05;;;;;;;41.78;25.02;;;16.60;99.90;;;;;;5053343;28;20024;-80
2021/07/28 03:17:30;;;;;;;52.30;29.58;;;16.50;99.90;;;;;;5071126;28;20405;-80
2021/07/28 03:19:56;;;;;;;50.63;27.77;;;16.50;99.90;;;;;;5053322;28;20032;-81
2021/07/28 03:22:21;;;;;;;47.60;30.70;;;16.50;99.90;;;;;;5088523;28;20043;-80
2021/07/28 03:24:47;;;;;;;49.30;29.42;;;16.40;99.90;;;;;;5093931;28;20071;-81
2021/07/28 03:27:12;;;;;;;54.65;30.25;;;16.50;99.90;;;;;;5095262;28;20065;-80
2021/07/28 03:29:38;;;;;;;62.42;31.75;;;16.50;99.90;;;;;;5095135;28;20057;-80
2021/07/28 03:32:04;;;;;;;64.22;33.67;;;16.40;99.90;;;;;;5094976;28;20024;-80
2021/07/28 03:34:29;;;;;;;53.30;31.00;;;16.40;99.90;;;;;;5077143;28;20023;-80
2021/07/28 03:36:55;;;;;;;59.25;33.33;;;16.40;99.90;;;;;;5076976;28;20422;-80
2021/07/28 03:39:20;;;;;;;64.70;32.38;;;16.40;99.90;;;;;;5095127;28;20472;-81
2021/07/28 03:41:46;;;;;;;56.35;30.63;;;16.40;99.90;;;;;;5094814;28;20024;-81
2021/07/28 03:44:11;;;;;;;56.47;33.67;;;16.40;99.90;;;;;;5094931;28;20028;-80
2021/07/28 03:46:37;;;;;;;66.22;34.53;;;16.40;99.90;;;;;;5094778;28;20028;-80
2021/07/28 03:49:02;;;;;;;51.17;32.92;;;16.30;99.90;;;;;;5094944;28;20021;-80
2021/07/28 03:51:28;;;;;;;63.05;35.95;;;16.30;99.90;;;;;;5076498;28;20464;-81
2021/07/28 03:53:53;;;;;;;71.93;38.17;;;16.30;99.90;;;;;;5094526;28;20024;-80
2021/07/28 03:56:22;;;;;;;67.00;37.20;;;16.30;99.90;;;;;;5081804;28;20029;-81
2021/07/28 03:58:53;;;;;;;70.85;36.13;;;16.20;99.90;;;;;;5094627;28;20024;-80
2021/07/28 04:01:20;;;;;;;74.20;38.38;;;16.30;99.90;;;;;;5076278;28;20070;-80
2021/07/28 04:03:46;;;;;;;63.55;36.38;;;16.20;99.90;;;;;;5094630;28;20081;-80
2021/07/28 04:06:11;;;;;;;70.07;39.17;;;16.20;99.90;;;;;;5094456;28;20032;-81
2021/07/28 04:08:37;;;;;;;75.20;40.90;;;16.30;99.90;;;;;;5094532;28;20433;-81
2021/07/28 04:11:02;;;;;;;73.30;40.00;;;16.10;99.90;;;;;;5094349;28;20077;-80
2021/07/28 04:13:28;;;;;;;76.30;38.95;;;16.10;99.90;;;;;;5094282;28;20384;-81
2021/07/28 04:15:53;;;;;;;75.43;39.65;;;16.10;99.90;;;;;;5094251;28;20099;-81
2021/07/28 04:18:19;;;;;;;73.10;39.30;;;16.10;99.90;;;;;;5094363;28;20430;-81
2021/07/28 04:20:45;;;;;;;69.80;37.30;;;16.10;99.90;;;;;;5090100;28;20530;-80
2021/07/28 04:23:10;;;;;;;74.57;39.80;;;16.10;99.90;;;;;;5073854;28;20544;-80
2021/07/28 04:25:36;;;;;;;64.55;36.45;;;16.10;99.90;;;;;;5073703;28;20519;-81
2021/07/28 04:28:01;;;;;;;67.45;35.78;;;16.30;99.90;;;;;;5073890;28;20029;-80
2021/07/28 04:30:27;;;;;;;70.57;38.22;;;16.20;99.90;;;;;;5073794;28;20024;-80
2021/07/28 04:32:52;;;;;;;72.65;37.20;;;16.30;99.90;;;;;;5073632;28;20016;-81
2021/07/28 04:35:18;;;;;;;64.13;34.47;;;16.40;99.90;;;;;;5055350;28;20439;-80
2021/07/28 04:37:44;;;;;;;62.28;34.42;;;16.40;99.90;;;;;;5073670;28;20473;-81
2021/07/28 04:40:10;;;;;;;54.20;32.42;;;16.50;99.90;;;;;;5073673;28;20024;-81
2021/07/28 04:42:36;;;;;;;50.45;31.00;;;16.50;99.90;;;;;;5055406;28;20083;-80
2021/07/28 04:45:03;;;;;;;56.45;33.42;;;16.50;99.90;;;;;;5073487;28;20580;-80
2021/07/28 04:47:28;;;;;;;60.30;34.35;;;16.60;99.90;;;;;;5073446;28;20033;-80
2021/07/28 04:49:54;;;;;;;50.20;30.88;;;16.50;99.90;;;;;;5073449;28;20025;-80
2021/07/28 04:52:24;;;;;;;56.50;31.75;;;16.50;99.90;;;;;;5073280;28;20024;-81
2021/07/28 04:54:53;;;;;;;44.67;30.08;;;16.50;99.90;;;;;;5073335;28;20496;-80
2021/07/28 04:57:19;;;;;;;61.42;32.00;;;16.50;99.90;;;;;;5055394;28;20028;-80
2021/07/28 04:59:45;;;;;;;57.42;33.63;;;16.50;99.90;;;;;;5055291;28;20071;-81
2021/07/28 05:02:11;;;;;;;72.63;34.75;;;16.50;99.90;;;;;;5073064;28;20028;-80
2021/07/28 05:04:36;;;;;;;54.90;31.85;;;16.50;99.90;;;;;;5055325;28;20024;-80
2021/07/28 05:07:02;;;;;;;51.72;31.30;;;16.50;99.90;;;;;;5072979;28;20401;-80
2021/07/28 05:09:27;;;;;;;60.13;34.78;;;16.60;99.90;;;;;;5055087;28;20386;-80
2021/07/28 05:11:53;;;;;;;56.97;32.05;;;16.60;99.90;;;;;;5072975;28;20040;-80
2021/07/28 05:14:18;;;;;;;56.97;33.47;;;16.60;99.90;;;;;;5072953;28;20025;-80
2021/07/28 05:16:44;;;;;;;62.45;35.30;;;16.60;99.90;;;;;;5072825;28;20035;-80
2021/07/28 05:19:10;;;;;;;62.30;34.42;;;16.70;99.90;;;;;;5055055;28;20040;-80
2021/07/28 05:21:35;;;;;;;52.28;33.25;;;16.70;99.90;;;;;;5072560;28;20031;-81
2021/07/28 05:24:01;;;;;;;55.83;33.28;;;16.70;99.90;;;;;;5054725;28;20033;-80
2021/07/28 05:26:26;;;;;;;57.60;33.85;;;16.80;99.90;;;;;;5054750;28;20024;-80
2021/07/28 05:28:52;;;;;;;60.22;34.88;;;16.80;99.90;;;;;;5072671;28;20028;-80
2021/07/28 05:31:17;;;;;;;56.35;33.15;;;16.90;99.90;;;;;;5054596;28;20084;-80
2021/07/28 05:33:43;;;;;;;54.92;31.73;;;16.80;99.90;;;;;;5072623;28;20056;-80
2021/07/28 05:36:09;;;;;;;56.42;34.60;;;16.90;99.90;;;;;;5072511;28;20040;-79
2021/07/28 05:38:35;;;;;;;55.95;31.73;;;16.80;99.90;;;;;;5072471;28;20477;-80
2021/07/28 05:41:04;;;;;;;62.30;34.63;;;16.90;99.90;;;;;;5072431;28;20539;-81
2021/07/28 05:43:30;;;;;;;54.15;33.85;;;16.90;99.90;;;;;;5072219;28;20453;-80
2021/07/28 05:45:56;;;;;;;56.00;35.08;;;16.80;99.90;;;;;;5071692;28;20044;-80
2021/07/28 05:48:21;;;;;;;56.22;34.33;;;16.80;99.90;;;;;;5072167;28;20028;-80
2021/07/28 05:50:48;;;;;;;55.20;34.95;;;16.80;99.90;;;;;;5072265;28;20373;-80
2021/07/28 05:53:14;;;;;;;57.78;36.53;;;16.70;99.90;;;;;;5053982;28;20051;-80
2021/07/28 05:55:39;;;;;;;64.70;37.42;;;16.80;99.90;;;;;;5072208;28;20469;-80
2021/07/28 05:58:05;;;;;;;60.85;35.90;;;16.90;99.90;;;;;;5072149;28;20040;-80
2021/07/28 06:00:30;;;;;;;64.07;36.38;;;17.20;99.90;;;;;;5053517;28;20115;-80
2021/07/28 06:02:56;;;;;;;52.25;32.40;;;17.40;99.90;;;;;;5090563;28;20109;-80
2021/07/28 06:05:21;;;;;;;54.33;32.47;;;17.40;99.90;;;;;;5073703;28;20035;-80
2021/07/28 06:07:47;;;;;;;57.30;35.92;;;17.60;99.90;;;;;;5092012;28;20016;-81
2021/07/28 06:10:14;;;;;;;49.75;33.92;;;17.70;99.90;;;;;;5092048;28;20027;-81
2021/07/28 06:12:40;;;;;;;50.33;30.55;;;17.90;99.90;;;;;;5091892;28;20027;-81
2021/07/28 06:15:06;;;;;;;48.83;31.70;;;17.90;99.90;;;;;;5092052;28;20020;-80
2021/07/28 06:17:31;;;;;;;38.58;27.48;;;17.90;99.90;;;;;;5091997;28;20035;-80
2021/07/28 06:19:57;;;;;;;42.63;29.27;;;17.80;99.90;;;;;;5074168;28;20419;-80
2021/07/28 06:22:23;;;;;;;40.55;26.75;;;18.00;99.90;;;;;;5073404;28;20020;-81
2021/07/28 06:24:48;;;;;;;48.42;29.08;;;18.00;99.90;;;;;;5091817;28;20028;-80
2021/07/28 06:27:14;;;;;;;40.60;27.80;;;18.10;99.90;;;;;;5073706;28;20024;-80
2021/07/28 06:29:39;;;;;;;38.78;27.38;;;18.20;99.90;;;;;;5091910;28;20645;-80
2021/07/28 06:32:05;;;;;;;38.17;27.20;;;18.20;99.90;;;;;;5091726;28;20038;-80
2021/07/28 06:34:31;;;;;;;42.80;27.75;;;18.10;99.90;;;;;;5073639;28;20031;-80
2021/07/28 06:36:56;;;;;;;32.10;23.98;;;18.30;99.90;;;;;;5073504;28;20028;-81
2021/07/28 06:39:22;;;;;;;32.38;23.25;;;18.30;99.90;;;;;;5091861;28;20024;-82
2021/07/28 06:41:47;;;;;;;29.15;22.20;;;18.40;99.90;;;;;;5073396;28;20020;-81
2021/07/28 06:44:13;;;;;;;35.20;22.73;;;18.70;99.90;;;;;;5091713;28;20093;-81
2021/07/28 06:46:38;;;;;;;26.10;19.35;;;19.20;99.90;;;;;;5091692;28;20224;-82
2021/07/28 06:49:04;;;;;;;25.00;17.40;;;19.40;99.90;;;;;;5073778;28;20500;-83
2021/07/28 06:51:31;;;;;;;25.67;16.23;;;19.70;99.90;;;;;;5073255;28;20097;-82
2021/07/28 06:53:57;;;;;;;21.38;15.20;;;19.50;99.90;;;;;;5091766;28;20020;-82
2021/07/28 06:56:22;;;;;;;18.55;13.65;;;19.10;99.90;;;;;;5089872;28;20036;-82
2021/07/28 06:58:48;;;;;;;21.60;13.82;;;18.90;99.90;;;;;;5065069;28;20035;-82
2021/07/28 07:01:13;;;;;;;25.23;13.40;;;18.70;99.90;;;;;;5077460;28;20122;-81
2021/07/28 07:03:39;;;;;;;20.58;13.10;;;18.50;99.90;;;;;;5077569;28;20030;-80
2021/07/28 07:06:06;;;;;;;27.63;14.02;;;18.20;99.90;;;;;;5077257;28;20079;-81
2021/07/28 07:08:31;;;;;;;21.95;13.82;;;18.00;99.90;;;;;;5095670;28;20024;-80
2021/07/28 07:10:57;;;;;;;24.60;16.15;;;18.20;99.90;;;;;;5077312;28;20092;-80
2021/07/28 07:13:23;;;;;;;22.95;13.48;;;18.30;99.90;;;;;;5095428;28;20016;-80
2021/07/28 07:15:48;;;;;;;21.25;14.40;;;18.50;99.90;;;;;;5077177;28;20031;-81
2021/07/28 07:18:14;;;;;;;19.85;15.00;;;18.60;99.90;;;;;;5095505;28;20032;-80
2021/07/28 07:20:39;;;;;;;24.00;14.63;;;18.60;99.90;;;;;;5091823;28;20112;-80
2021/07/28 07:23:05;;;;;;;19.30;14.38;;;18.80;99.90;;;;;;5074899;28;20134;-82
2021/07/28 07:25:30;;;;;;;19.15;14.40;;;19.10;99.90;;;;;;5074682;28;20396;-81
2021/07/28 07:27:56;;;;;;;22.60;15.93;;;18.90;99.90;;;;;;5075029;28;20054;-81
2021/07/28 07:30:22;;;;;;;20.75;15.52;;;18.70;99.90;;;;;;5056971;28;20032;-81
2021/07/28 07:33:37;;;;;;;22.67;14.55;;;18.50;99.90;;;;;;5056800;28;20025;-81
2021/07/28 07:35:33;;;;;;;20.42;13.65;;;18.30;99.90;;;;;;5074521;28;20040;-82
2021/07/28 07:37:58;;;;;;;18.88;14.23;;;18.30;99.90;;;;;;5056931;28;20025;-82
2021/07/28 07:40:24;;;;;;;22.27;13.60;;;18.30;99.90;;;;;;5057069;28;20056;-81
2021/07/28 07:42:49;;;;;;;21.17;13.50;;;18.50;99.90;;;;;;5074435;28;20370;-80
2021/07/28 07:45:15;;;;;;;23.17;14.60;;;18.80;99.90;;;;;;5074756;28;20166;-82
2021/07/28 07:47:40;;;;;;;19.35;13.23;;;19.20;99.90;;;;;;5074504;28;20055;-82
2021/07/28 07:50:06;;;;;;;18.98;10.77;;;19.50;99.90;;;;;;5074565;28;20020;-82
2021/07/28 07:52:32;;;;;;;17.92;10.35;;;19.30;99.90;;;;;;5074304;28;20033;-82
2021/07/28 07:54:57;;;;;;;15.93;10.13;;;19.30;99.90;;;;;;5056597;28;20020;-82
2021/07/28 07:57:23;;;;;;;18.60;10.27;;;19.50;99.90;;;;;;5074431;28;20461;-82
2021/07/28 07:59:49;;;;;;;15.40;9.90;;;19.70;99.90;;;;;;5074352;28;20033;-80
2021/07/28 08:02:14;;;;;;;15.93;9.65;;;20.20;99.90;;;;;;5074181;28;20037;-81
2021/07/28 08:04:40;;;;;;;14.70;9.98;;;20.40;99.90;;;;;;5074283;28;20025;-83
2021/07/28 08:07:05;;;;;;;20.13;10.88;;;20.20;99.90;;;;;;5074037;28;20024;-81
2021/07/28 08:09:31;;;;;;;19.45;8.77;;;19.70;99.90;;;;;;5073396;28;20025;-81
2021/07/28 08:11:57;;;;;;;19.60;8.70;;;19.90;99.90;;;;;;5073926;28;20059;-80
2021/07/28 08:14:23;;;;;;;13.82;9.50;;;20.10;99.90;;;;;;5074210;28;20028;-81
2021/07/28 08:16:49;;;;;;;15.88;9.45;;;20.30;99.90;;;;;;5056118;28;20393;-80
2021/07/28 08:19:14;;;;;;;13.88;9.00;;;20.60;99.90;;;;;;5073892;28;20707;-81
2021/07/28 08:21:40;;;;;;;15.00;9.95;;;20.60;99.90;;;;;;5073788;28;20035;-81
2021/07/28 08:24:05;;;;;;;17.45;9.43;;;20.30;99.90;;;;;;5073893;28;20490;-83
2021/07/28 08:26:31;;;;;;;13.57;9.07;;;20.50;99.90;;;;;;5073951;28;20056;-81
2021/07/28 08:28:57;;;;;;;22.20;9.88;;;20.80;99.90;;;;;;5050520;28;20519;-81
2021/07/28 08:31:22;;;;;;;15.20;9.75;;;20.90;99.90;;;;;;5068075;28;20073;-85
2021/07/28 08:33:48;;;;;;;20.17;9.15;;;21.00;99.90;;;;;;5081787;28;20028;-84
2021/07/28 08:36:13;;;;;;;19.67;11.00;;;21.20;99.90;;;;;;5070974;28;20097;-82
2021/07/28 08:38:39;;;;;;;19.48;9.68;;;21.00;99.90;;;;;;5076268;28;20024;-81
2021/07/28 08:41:04;;;;;;;19.08;9.77;;;20.60;99.90;;;;;;5071373;28;20048;-81
2021/07/28 08:43:35;;;;;;;21.98;10.52;;;20.30;99.90;;;;;;5054383;28;20056;-80
2021/07/28 08:46:03;;;;;;;20.10;11.60;;;20.20;99.90;;;;;;5072258;28;20104;-81
2021/07/28 08:48:29;;;;;;;16.58;10.57;;;20.10;99.90;;;;;;5072041;28;20370;-81
2021/07/28 08:50:59;;;;;;;16.42;10.98;;;20.30;99.90;;;;;;5054750;28;20477;-79
2021/07/28 08:53:26;;;;;;;19.20;10.18;;;20.10;99.90;;;;;;5072482;28;20059;-80
2021/07/28 08:55:56;;;;;;;24.27;10.95;;;19.80;99.90;;;;;;5054179;28;20028;-82
2021/07/28 08:58:23;;;;;;;18.60;10.25;;;19.60;99.90;;;;;;5071942;28;20028;-80
2021/07/28 09:00:49;;;;;;;18.60;11.20;;;19.50;99.90;;;;;;5072056;28;20122;-80
2021/07/28 09:03:14;;;;;;;15.13;10.43;;;19.60;99.90;;;;;;5053811;28;20401;-82
2021/07/28 09:05:48;;;;;;;19.58;11.82;;;19.80;99.90;;;;;;5071992;28;20029;-82
2021/07/28 09:08:31;;;;;;;16.25;9.10;;;20.20;99.90;;;;;;5072047;28;20366;-82
2021/07/28 09:11:00;;;;;;;12.60;8.73;;;20.50;99.90;;;;;;5078902;28;20024;-81
2021/07/28 09:13:36;;;;;;;16.35;8.95;;;20.60;99.90;;;;;;5057801;28;20568;-85
2021/07/28 09:16:06;;;;;;;11.18;7.93;;;20.50;99.90;;;;;;5073723;28;20035;-81
2021/07/28 09:18:37;;;;;;;19.85;7.40;;;20.90;99.90;;;;;;5073904;28;20028;-80
2021/07/28 09:21:05;;;;;;;21.40;9.07;;;21.10;99.90;;;;;;5073795;28;20047;-82
2021/07/28 09:23:40;;;;;;;14.52;7.03;;;21.40;99.90;;;;;;5092001;28;20056;-80
2021/07/28 09:26:43;;;;;;;19.25;7.75;;;21.70;99.90;;;;;;5091922;28;20110;-79
2021/07/28 09:29:10;;;;;;;15.80;6.35;;;22.30;99.90;;;;;;5091944;28;20028;-82
2021/07/28 09:31:40;;;;;;;21.30;8.30;;;22.10;99.90;;;;;;5073063;28;20021;-83
2021/07/28 09:34:18;;;;;;;12.57;7.20;;;21.40;99.90;;;;;;5053263;28;20548;-81
2021/07/28 09:36:44;;;;;;;14.70;6.82;;;21.10;99.90;;;;;;5071423;28;20119;-80
2021/07/28 09:39:21;;;;;;;9.20;6.43;;;20.90;99.90;;;;;;5053444;28;20119;-81
2021/07/28 09:41:47;;;;;;;15.20;7.35;;;20.50;99.90;;;;;;5071237;28;20028;-80
2021/07/28 09:44:23;;;;;;;10.32;6.55;;;20.40;99.90;;;;;;5054507;28;20573;-81
2021/07/28 09:46:50;;;;;;;12.20;6.10;;;20.30;99.90;;;;;;5071687;28;20127;-79
2021/07/28 09:49:18;;;;;;;11.68;6.22;;;20.20;99.90;;;;;;5087033;28;20581;-82
2021/07/28 09:51:45;;;;;;;14.80;7.93;;;20.30;99.90;;;;;;5084473;28;20581;-80
2021/07/28 09:54:13;;;;;;;22.05;8.15;;;20.70;99.90;;;;;;5053126;28;20033;-79
2021/07/28 09:56:53;;;;;;;19.25;8.25;;;20.60;99.90;;;;;;5056252;28;20043;-81
2021/07/28 09:59:19;;;;;;;17.42;9.00;;;20.30;99.90;;;;;;5078534;28;20028;-80
2021/07/28 10:01:47;;;;;;;25.33;8.88;;;20.00;99.90;;;;;;5060291;28;20024;-80
2021/07/28 10:04:14;;;;;;;15.27;8.73;;;19.80;99.90;;;;;;5059982;28;20028;-80
2021/07/28 10:06:43;;;;;;;9.30;6.40;;;20.10;99.90;;;;;;5077036;28;20048;-81
2021/07/28 10:09:16;;;;;;;13.13;6.85;;;20.50;99.90;;;;;;5054601;28;20111;-81
2021/07/28 10:11:47;;;;;;;11.77;7.28;;;20.70;99.90;;;;;;5082013;28;20035;-81
2021/07/28 10:14:18;;;;;;;16.73;7.95;;;20.90;99.90;;;;;;5078166;28;20099;-82
2021/07/28 10:16:45;;;;;;;14.07;7.60;;;21.10;99.90;;;;;;5068590;28;20029;-80
2021/07/28 10:19:10;;;;;;;15.02;7.47;;;21.30;99.90;;;;;;5064283;28;20114;-80
2021/07/28 10:21:37;;;;;;;13.00;7.18;;;21.10;99.90;;;;;;5077350;28;20103;-80
2021/07/28 10:24:04;;;;;;;15.02;6.75;;;20.80;99.90;;;;;;5076812;28;20044;-81
2021/07/28 10:26:33;;;;;;;14.70;6.72;;;20.70;99.90;;;;;;5068317;28;20149;-81
2021/07/28 10:28:59;;;;;;;14.10;6.60;;;20.70;99.90;;;;;;5060149;28;20028;-81
2021/07/28 10:31:25;;;;;;;10.02;5.70;;;21.10;99.90;;;;;;5066749;28;20058;-80
2021/07/28 10:33:57;;;;;;;15.35;6.55;;;21.60;99.90;;;;;;5082901;28;20028;-80
2021/07/28 10:36:46;;;;;;;9.02;5.80;;;21.80;99.90;;;;;;5071809;28;20527;-80
2021/07/28 10:39:12;;;;;;;13.00;6.25;;;21.70;99.90;;;;;;5084514;28;20157;-84
2021/07/28 10:41:43;;;;;;;8.18;5.65;;;21.80;99.90;;;;;;5050810;28;20036;-82
2021/07/28 10:44:17;;;;;;;7.82;5.90;;;22.00;99.90;;;;;;5078537;28;20730;-79
2021/07/28 10:47:05;;;;;;;14.82;7.22;;;22.00;99.90;;;;;;5068911;28;20024;-80
2021/07/28 10:49:37;;;;;;;16.55;6.35;;;21.60;99.90;;;;;;5068357;28;20489;-80
2021/07/28 10:52:13;;;;;;;13.48;5.85;;;21.80;99.90;;;;;;5060776;28;20020;-82
2021/07/28 10:54:48;;;;;;;11.85;5.95;;;22.00;99.90;;;;;;5077469;28;20048;-81
2021/07/28 10:57:32;;;;;;;12.95;5.85;;;22.50;99.90;;;;;;5073422;28;20055;-79
2021/07/28 11:00:06;;;;;;;13.25;6.32;;;22.30;99.90;;;;;;5067557;28;20028;-79
2021/07/28 11:02:57;;;;;;;6.88;5.05;;;22.40;99.90;;;;;;5071126;28;20020;-82
2021/07/28 11:05:27;;;;;;;11.68;5.00;;;23.10;99.90;;;;;;5085877;28;20131;-81
2021/07/28 11:07:58;;;;;;;8.48;5.07;;;23.00;99.90;;;;;;5059173;28;20511;-79
2021/07/28 11:10:28;;;;;;;10.23;6.05;;;22.70;99.90;;;;;;5051388;28;20032;-82
2021/07/28 11:12:54;;;;;;;8.30;5.35;;;22.50;99.90;;;;;;5068092;28;20193;-83
2021/07/28 11:15:21;;;;;;;11.15;6.10;;;22.50;99.90;;;;;;5069128;28;20449;-80
2021/07/28 11:17:51;;;;;;;15.30;5.78;;;22.40;99.90;;;;;;5058884;28;20025;-81
2021/07/28 11:20:26;;;;;;;12.10;5.88;;;22.30;99.90;;;;;;5077656;28;20553;-81
2021/07/28 11:22:52;;;;;;;11.82;5.90;;;21.80;99.90;;;;;;5075683;28;20082;-84
2021/07/28 11:25:18;;;;;;;11.75;5.57;;;21.90;99.90;;;;;;5075997;28;20033;-81
2021/07/28 11:28:06;;;;;;;12.98;5.63;;;21.90;99.90;;;;;;5085018;28;20028;-79
2021/07/28 11:30:31;;;;;;;6.28;5.18;;;21.90;99.90;;;;;;5068629;28;20016;-81
2021/07/28 11:33:15;;;;;;;11.02;6.22;;;22.00;99.90;;;;;;5075940;28;20056;-82
2021/07/28 11:35:44;;;;;;;7.78;5.25;;;22.10;99.90;;;;;;5062992;28;20028;-80
2021/07/28 11:38:18;;;;;;;8.30;5.50;;;22.50;99.90;;;;;;5069021;28;20044;-81
2021/07/28 11:40:45;;;;;;;9.18;4.68;;;22.40;99.90;;;;;;5056565;28;20028;-78
2021/07/28 11:43:20;;;;;;;5.97;4.82;;;22.70;99.90;;;;;;5058497;28;20438;-83
2021/07/28 11:45:46;;;;;;;6.75;5.22;;;22.50;99.90;;;;;;5072572;28;20527;-82
2021/07/28 11:48:26;;;;;;;12.25;5.55;;;22.30;99.90;;;;;;5085934;28;20027;-82
2021/07/28 11:50:51;;;;;;;8.85;5.63;;;22.20;99.90;;;;;;5063603;28;20021;-81
2021/07/28 11:53:25;;;;;;;8.75;5.10;;;22.00;99.90;;;;;;5054344;28;20077;-81
2021/07/28 11:55:55;;;;;;;10.80;6.07;;;22.60;99.90;;;;;;5071414;28;20032;-82
2021/07/28 11:58:21;;;;;;;9.73;5.68;;;23.10;99.90;;;;;;5066070;28;20122;-81
2021/07/28 12:00:49;;;;;;;9.85;6.93;;;23.30;99.90;;;;;;5063167;28;20090;-82
2021/07/28 12:03:28;;;;;;;11.95;5.88;;;23.10;99.90;;;;;;5062234;28;20035;-82
2021/07/28 12:06:05;;;;;;;9.57;6.10;;;22.70;99.90;;;;;;5074005;28;20428;-80
2021/07/28 12:08:38;;;;;;;9.82;5.53;;;23.10;99.90;;;;;;5074339;28;20481;-81
2021/07/28 12:11:05;;;;;;;12.20;6.85;;;23.70;99.90;;;;;;5074242;28;20025;-84
2021/07/28 12:13:45;;;;;;;9.57;5.65;;;23.40;99.90;;;;;;5074059;28;20021;-81
2021/07/28 12:16:11;;;;;;;12.32;5.32;;;22.70;99.90;;;;;;5074072;28;20025;-80
2021/07/28 12:18:49;;;;;;;8.25;5.57;;;22.80;99.90;;;;;;5073934;28;20024;-88
2021/07/28 12:21:15;;;;;;;13.90;5.38;;;22.70;99.90;;;;;;5073876;28;20077;-81
2021/07/28 12:23:52;;;;;;;8.73;4.90;;;22.60;99.90;;;;;;5055822;28;20025;-80
2021/07/28 12:26:46;;;;;;;7.22;5.50;;;22.30;99.90;;;;;;5055743;28;20042;-81
2021/07/28 12:29:31;;;;;;;10.35;5.75;;;22.30;99.90;;;;;;5073625;28;20024;-80
2021/07/28 12:31:57;;;;;;;7.15;5.32;;;22.80;99.90;;;;;;5073621;28;20378;-80
2021/07/28 12:34:23;;;;;;;10.20;6.47;;;22.80;99.90;;;;;;5073557;28;20035;-79
2021/07/28 12:36:48;;;;;;;7.57;5.15;;;22.80;99.90;;;;;;5073549;28;20107;-81
2021/07/28 12:39:14;;;;;;;9.40;4.55;;;23.10;99.90;;;;;;5073667;28;20067;-80